sensor_id;sensor_type;location;lat;lon;timestamp;P1;durP1;ratioP1;P2;durP2;ratioP2
16954;SDS011;8594;52.052;8.354;2022-09-09T00:01:42;3.80;;;1.50;;
16954;SDS011;8594;52.052;8.354;2022-09-09T00:04:20;2.67;;;1.43;;
16954;SDS011;8594;52.052;8.354;2022-09-09T00:06:59;4.50;;;1.60;;
16954;SDS011;8594;52.052;8.354;2022-09-09T00:09:35;4.60;;;1.70;;
16954;SDS011;8594;52.052;8.354;2022-09-09T00:12:11;4.57;;;1.37;;
16954;SDS011;8594;52.052;8.354;2022-09-09T00:14:46;3.53;;;1.40;;
16954;SDS011;8594;52.052;8.354;2022-09-09T00:17:25;7.00;;;1.80;;
16954;SDS011;8594;52.052;8.354;2022-09-09T00:20:05;5.27;;;1.50;;
16954;SDS011;8594;52.052;8.354;2022-09-09T00:22:42;3.73;;;1.47;;
16954;SDS011;8594;52.052;8.354;2022-09-09T00:25:22;3.47;;;1.50;;
16954;SDS011;8594;52.052;8.354;2022-09-09T00:27:59;6.77;;;1.50;;
16954;SDS011;8594;52.052;8.354;2022-09-09T00:30:29;5.13;;;1.70;;
16954;SDS011;8594;52.052;8.354;2022-09-09T00:33:03;3.20;;;1.43;;
16954;SDS011;8594;52.052;8.354;2022-09-09T00:35:42;3.27;;;1.57;;
16954;SDS011;8594;52.052;8.354;2022-09-09T00:38:13;5.03;;;1.50;;
16954;SDS011;8594;52.052;8.354;2022-09-09T00:40:48;2.60;;;1.60;;
16954;SDS011;8594;52.052;8.354;2022-09-09T00:43:24;4.63;;;1.70;;
16954;SDS011;8594;52.052;8.354;2022-09-09T00:45:59;5.43;;;1.40;;
16954;SDS011;8594;52.052;8.354;2022-09-09T00:49:09;3.03;;;1.60;;
16954;SDS011;8594;52.052;8.354;2022-09-09T00:51:54;6.27;;;1.77;;
16954;SDS011;8594;52.052;8.354;2022-09-09T00:54:37;3.77;;;1.70;;
16954;SDS011;8594;52.052;8.354;2022-09-09T00:57:22;3.20;;;1.47;;
16954;SDS011;8594;52.052;8.354;2022-09-09T00:59:56;3.03;;;1.70;;
16954;SDS011;8594;52.052;8.354;2022-09-09T01:02:44;4.07;;;1.80;;
16954;SDS011;8594;52.052;8.354;2022-09-09T01:05:30;2.57;;;1.33;;
16954;SDS011;8594;52.052;8.354;2022-09-09T01:08:09;4.40;;;1.53;;
16954;SDS011;8594;52.052;8.354;2022-09-09T01:11:03;6.30;;;1.60;;
16954;SDS011;8594;52.052;8.354;2022-09-09T01:13:34;3.83;;;1.50;;
16954;SDS011;8594;52.052;8.354;2022-09-09T01:16:03;3.60;;;1.50;;
16954;SDS011;8594;52.052;8.354;2022-09-09T01:18:35;2.93;;;1.60;;
16954;SDS011;8594;52.052;8.354;2022-09-09T01:21:09;3.73;;;1.60;;
16954;SDS011;8594;52.052;8.354;2022-09-09T01:23:58;3.47;;;1.83;;
16954;SDS011;8594;52.052;8.354;2022-09-09T01:26:46;4.53;;;1.60;;
16954;SDS011;8594;52.052;8.354;2022-09-09T01:29:18;2.83;;;1.70;;
16954;SDS011;8594;52.052;8.354;2022-09-09T01:31:52;3.87;;;1.50;;
16954;SDS011;8594;52.052;8.354;2022-09-09T01:34:22;6.97;;;1.93;;
16954;SDS011;8594;52.052;8.354;2022-09-09T01:36:54;4.93;;;1.57;;
16954;SDS011;8594;52.052;8.354;2022-09-09T01:39:27;5.37;;;1.70;;
16954;SDS011;8594;52.052;8.354;2022-09-09T01:41:56;5.43;;;1.97;;
16954;SDS011;8594;52.052;8.354;2022-09-09T01:44:24;5.23;;;1.53;;
16954;SDS011;8594;52.052;8.354;2022-09-09T01:46:53;4.30;;;1.77;;
16954;SDS011;8594;52.052;8.354;2022-09-09T01:49:20;3.03;;;1.60;;
16954;SDS011;8594;52.052;8.354;2022-09-09T01:51:48;5.60;;;1.60;;
16954;SDS011;8594;52.052;8.354;2022-09-09T01:54:19;3.70;;;1.63;;
16954;SDS011;8594;52.052;8.354;2022-09-09T01:56:52;3.60;;;1.73;;
16954;SDS011;8594;52.052;8.354;2022-09-09T01:59:45;5.23;;;1.60;;
16954;SDS011;8594;52.052;8.354;2022-09-09T02:02:27;3.20;;;1.60;;
16954;SDS011;8594;52.052;8.354;2022-09-09T02:05:04;4.60;;;1.73;;
16954;SDS011;8594;52.052;8.354;2022-09-09T02:07:44;3.00;;;1.60;;
16954;SDS011;8594;52.052;8.354;2022-09-09T02:10:16;3.97;;;1.70;;
16954;SDS011;8594;52.052;8.354;2022-09-09T02:12:50;5.47;;;1.77;;
16954;SDS011;8594;52.052;8.354;2022-09-09T02:15:28;4.03;;;1.77;;
16954;SDS011;8594;52.052;8.354;2022-09-09T02:18:02;4.50;;;1.67;;
16954;SDS011;8594;52.052;8.354;2022-09-09T02:20:36;2.83;;;1.70;;
16954;SDS011;8594;52.052;8.354;2022-09-09T02:23:05;3.43;;;1.60;;
16954;SDS011;8594;52.052;8.354;2022-09-09T02:25:35;3.67;;;1.37;;
16954;SDS011;8594;52.052;8.354;2022-09-09T02:28:06;3.53;;;1.80;;
16954;SDS011;8594;52.052;8.354;2022-09-09T02:30:37;4.70;;;1.57;;
16954;SDS011;8594;52.052;8.354;2022-09-09T02:33:08;6.23;;;1.70;;
16954;SDS011;8594;52.052;8.354;2022-09-09T02:35:38;5.40;;;2.40;;
16954;SDS011;8594;52.052;8.354;2022-09-09T02:38:09;2.13;;;1.50;;
16954;SDS011;8594;52.052;8.354;2022-09-09T02:40:41;2.90;;;1.70;;
16954;SDS011;8594;52.052;8.354;2022-09-09T02:43:09;4.23;;;1.60;;
16954;SDS011;8594;52.052;8.354;2022-09-09T02:45:38;3.77;;;1.70;;
16954;SDS011;8594;52.052;8.354;2022-09-09T02:48:14;4.90;;;1.90;;
16954;SDS011;8594;52.052;8.354;2022-09-09T02:50:53;4.50;;;1.70;;
16954;SDS011;8594;52.052;8.354;2022-09-09T02:53:31;4.33;;;1.90;;
16954;SDS011;8594;52.052;8.354;2022-09-09T02:56:09;3.30;;;1.83;;
16954;SDS011;8594;52.052;8.354;2022-09-09T02:58:44;5.17;;;2.17;;
16954;SDS011;8594;52.052;8.354;2022-09-09T03:01:12;8.40;;;2.30;;
16954;SDS011;8594;52.052;8.354;2022-09-09T03:03:39;3.30;;;2.17;;
16954;SDS011;8594;52.052;8.354;2022-09-09T03:06:07;3.50;;;2.27;;
16954;SDS011;8594;52.052;8.354;2022-09-09T03:08:35;5.10;;;2.30;;
16954;SDS011;8594;52.052;8.354;2022-09-09T03:11:01;4.83;;;2.20;;
16954;SDS011;8594;52.052;8.354;2022-09-09T03:13:29;7.80;;;2.20;;
16954;SDS011;8594;52.052;8.354;2022-09-09T03:15:57;5.07;;;2.47;;
16954;SDS011;8594;52.052;8.354;2022-09-09T03:18:24;4.27;;;1.87;;
16954;SDS011;8594;52.052;8.354;2022-09-09T03:20:53;4.43;;;1.93;;
16954;SDS011;8594;52.052;8.354;2022-09-09T03:23:20;6.90;;;2.20;;
16954;SDS011;8594;52.052;8.354;2022-09-09T03:25:47;6.13;;;2.30;;
16954;SDS011;8594;52.052;8.354;2022-09-09T03:28:16;6.90;;;2.50;;
16954;SDS011;8594;52.052;8.354;2022-09-09T03:30:43;6.20;;;2.33;;
16954;SDS011;8594;52.052;8.354;2022-09-09T03:33:11;3.70;;;1.77;;
16954;SDS011;8594;52.052;8.354;2022-09-09T03:35:44;3.80;;;2.27;;
16954;SDS011;8594;52.052;8.354;2022-09-09T03:38:13;4.30;;;2.23;;
16954;SDS011;8594;52.052;8.354;2022-09-09T03:40:47;2.50;;;1.87;;
16954;SDS011;8594;52.052;8.354;2022-09-09T03:43:16;5.27;;;2.20;;
16954;SDS011;8594;52.052;8.354;2022-09-09T03:45:44;5.30;;;2.10;;
16954;SDS011;8594;52.052;8.354;2022-09-09T03:48:13;6.57;;;2.93;;
16954;SDS011;8594;52.052;8.354;2022-09-09T03:50:43;4.83;;;2.03;;
16954;SDS011;8594;52.052;8.354;2022-09-09T03:53:11;7.07;;;1.70;;
16954;SDS011;8594;52.052;8.354;2022-09-09T03:55:38;4.37;;;2.10;;
16954;SDS011;8594;52.052;8.354;2022-09-09T03:58:06;2.97;;;1.97;;
16954;SDS011;8594;52.052;8.354;2022-09-09T04:00:33;3.00;;;1.90;;
16954;SDS011;8594;52.052;8.354;2022-09-09T04:03:00;2.93;;;1.90;;
16954;SDS011;8594;52.052;8.354;2022-09-09T04:05:28;12.00;;;2.60;;
16954;SDS011;8594;52.052;8.354;2022-09-09T04:07:55;4.23;;;2.43;;
16954;SDS011;8594;52.052;8.354;2022-09-09T04:10:22;5.70;;;1.73;;
16954;SDS011;8594;52.052;8.354;2022-09-09T04:12:48;7.77;;;2.70;;
16954;SDS011;8594;52.052;8.354;2022-09-09T04:15:15;9.00;;;2.33;;
16954;SDS011;8594;52.052;8.354;2022-09-09T04:17:43;4.87;;;1.93;;
16954;SDS011;8594;52.052;8.354;2022-09-09T04:20:10;8.60;;;3.70;;
16954;SDS011;8594;52.052;8.354;2022-09-09T04:22:38;5.10;;;2.17;;
16954;SDS011;8594;52.052;8.354;2022-09-09T04:25:05;7.53;;;2.20;;
16954;SDS011;8594;52.052;8.354;2022-09-09T04:27:33;4.73;;;2.10;;
16954;SDS011;8594;52.052;8.354;2022-09-09T04:30:00;6.73;;;2.40;;
16954;SDS011;8594;52.052;8.354;2022-09-09T04:32:26;7.87;;;3.20;;
16954;SDS011;8594;52.052;8.354;2022-09-09T04:34:53;6.07;;;2.53;;
16954;SDS011;8594;52.052;8.354;2022-09-09T04:37:20;7.60;;;2.40;;
16954;SDS011;8594;52.052;8.354;2022-09-09T04:39:48;5.73;;;2.40;;
16954;SDS011;8594;52.052;8.354;2022-09-09T04:42:16;8.20;;;2.67;;
16954;SDS011;8594;52.052;8.354;2022-09-09T04:44:44;6.17;;;2.40;;
16954;SDS011;8594;52.052;8.354;2022-09-09T04:47:11;8.43;;;2.57;;
16954;SDS011;8594;52.052;8.354;2022-09-09T04:49:39;7.30;;;2.73;;
16954;SDS011;8594;52.052;8.354;2022-09-09T04:52:06;7.23;;;2.73;;
16954;SDS011;8594;52.052;8.354;2022-09-09T04:54:33;6.40;;;2.20;;
16954;SDS011;8594;52.052;8.354;2022-09-09T04:57:01;6.93;;;2.60;;
16954;SDS011;8594;52.052;8.354;2022-09-09T04:59:28;5.30;;;2.40;;
16954;SDS011;8594;52.052;8.354;2022-09-09T05:01:55;6.83;;;2.50;;
16954;SDS011;8594;52.052;8.354;2022-09-09T05:04:22;5.23;;;2.53;;
16954;SDS011;8594;52.052;8.354;2022-09-09T05:06:48;8.87;;;2.90;;
16954;SDS011;8594;52.052;8.354;2022-09-09T05:09:15;7.63;;;2.33;;
16954;SDS011;8594;52.052;8.354;2022-09-09T05:11:42;5.40;;;2.37;;
16954;SDS011;8594;52.052;8.354;2022-09-09T05:14:10;6.67;;;2.63;;
16954;SDS011;8594;52.052;8.354;2022-09-09T05:16:37;5.67;;;2.30;;
16954;SDS011;8594;52.052;8.354;2022-09-09T05:19:04;6.17;;;2.83;;
16954;SDS011;8594;52.052;8.354;2022-09-09T05:21:33;5.67;;;2.50;;
16954;SDS011;8594;52.052;8.354;2022-09-09T05:24:00;10.43;;;2.80;;
16954;SDS011;8594;52.052;8.354;2022-09-09T05:26:27;6.33;;;2.60;;
16954;SDS011;8594;52.052;8.354;2022-09-09T05:28:56;6.40;;;2.40;;
16954;SDS011;8594;52.052;8.354;2022-09-09T05:31:25;7.77;;;2.90;;
16954;SDS011;8594;52.052;8.354;2022-09-09T05:33:53;8.70;;;2.80;;
16954;SDS011;8594;52.052;8.354;2022-09-09T05:36:20;5.07;;;2.43;;
16954;SDS011;8594;52.052;8.354;2022-09-09T05:38:48;6.97;;;2.37;;
16954;SDS011;8594;52.052;8.354;2022-09-09T05:41:15;8.93;;;2.87;;
16954;SDS011;8594;52.052;8.354;2022-09-09T05:43:45;6.10;;;2.50;;
16954;SDS011;8594;52.052;8.354;2022-09-09T05:46:13;7.50;;;2.40;;
16954;SDS011;8594;52.052;8.354;2022-09-09T05:48:44;5.23;;;2.70;;
16954;SDS011;8594;52.052;8.354;2022-09-09T05:51:13;4.87;;;2.50;;
16954;SDS011;8594;52.052;8.354;2022-09-09T05:53:43;8.23;;;2.60;;
16954;SDS011;8594;52.052;8.354;2022-09-09T05:56:12;4.90;;;2.47;;
16954;SDS011;8594;52.052;8.354;2022-09-09T05:58:40;5.47;;;2.97;;
16954;SDS011;8594;52.052;8.354;2022-09-09T06:01:09;10.20;;;2.63;;
16954;SDS011;8594;52.052;8.354;2022-09-09T06:03:39;12.57;;;3.07;;
16954;SDS011;8594;52.052;8.354;2022-09-09T06:06:10;9.30;;;3.50;;
16954;SDS011;8594;52.052;8.354;2022-09-09T06:08:39;7.30;;;2.70;;
16954;SDS011;8594;52.052;8.354;2022-09-09T06:11:10;8.00;;;2.67;;
16954;SDS011;8594;52.052;8.354;2022-09-09T06:13:40;12.43;;;3.07;;
16954;SDS011;8594;52.052;8.354;2022-09-09T06:16:07;8.60;;;3.10;;
16954;SDS011;8594;52.052;8.354;2022-09-09T06:18:36;5.57;;;2.63;;
16954;SDS011;8594;52.052;8.354;2022-09-09T06:21:04;6.67;;;2.67;;
16954;SDS011;8594;52.052;8.354;2022-09-09T06:23:43;5.87;;;2.77;;
16954;SDS011;8594;52.052;8.354;2022-09-09T06:26:10;8.87;;;2.53;;
16954;SDS011;8594;52.052;8.354;2022-09-09T06:28:40;6.13;;;2.67;;
16954;SDS011;8594;52.052;8.354;2022-09-09T06:31:08;5.77;;;2.70;;
16954;SDS011;8594;52.052;8.354;2022-09-09T06:33:37;8.93;;;2.70;;
16954;SDS011;8594;52.052;8.354;2022-09-09T06:36:07;7.73;;;2.53;;
16954;SDS011;8594;52.052;8.354;2022-09-09T06:38:38;10.67;;;3.33;;
16954;SDS011;8594;52.052;8.354;2022-09-09T06:41:06;7.37;;;2.63;;
16954;SDS011;8594;52.052;8.354;2022-09-09T06:43:35;5.90;;;2.60;;
16954;SDS011;8594;52.052;8.354;2022-09-09T06:46:03;6.33;;;2.90;;
16954;SDS011;8594;52.052;8.354;2022-09-09T06:48:34;7.40;;;3.00;;
16954;SDS011;8594;52.052;8.354;2022-09-09T06:51:03;8.43;;;2.83;;
16954;SDS011;8594;52.052;8.354;2022-09-09T06:53:32;6.07;;;2.10;;
16954;SDS011;8594;52.052;8.354;2022-09-09T06:56:00;4.93;;;2.40;;
16954;SDS011;8594;52.052;8.354;2022-09-09T06:58:29;4.23;;;2.27;;
16954;SDS011;8594;52.052;8.354;2022-09-09T07:01:03;11.13;;;2.57;;
16954;SDS011;8594;52.052;8.354;2022-09-09T07:03:31;8.03;;;2.63;;
16954;SDS011;8594;52.052;8.354;2022-09-09T07:06:00;8.57;;;2.53;;
16954;SDS011;8594;52.052;8.354;2022-09-09T07:08:28;5.37;;;2.40;;
16954;SDS011;8594;52.052;8.354;2022-09-09T07:11:01;7.03;;;2.40;;
16954;SDS011;8594;52.052;8.354;2022-09-09T07:13:32;3.80;;;2.33;;
16954;SDS011;8594;52.052;8.354;2022-09-09T07:16:02;6.47;;;2.20;;
16954;SDS011;8594;52.052;8.354;2022-09-09T07:18:31;7.60;;;2.70;;
16954;SDS011;8594;52.052;8.354;2022-09-09T07:20:58;6.40;;;2.50;;
16954;SDS011;8594;52.052;8.354;2022-09-09T07:23:25;7.73;;;2.30;;
16954;SDS011;8594;52.052;8.354;2022-09-09T07:25:52;13.00;;;2.53;;
16954;SDS011;8594;52.052;8.354;2022-09-09T07:28:18;5.80;;;2.17;;
16954;SDS011;8594;52.052;8.354;2022-09-09T07:30:53;7.50;;;2.20;;
16954;SDS011;8594;52.052;8.354;2022-09-09T07:33:24;9.73;;;2.57;;
16954;SDS011;8594;52.052;8.354;2022-09-09T07:35:52;3.00;;;1.63;;
16954;SDS011;8594;52.052;8.354;2022-09-09T07:38:19;5.63;;;2.10;;
16954;SDS011;8594;52.052;8.354;2022-09-09T07:40:47;9.67;;;2.90;;
16954;SDS011;8594;52.052;8.354;2022-09-09T07:43:14;6.97;;;2.30;;
16954;SDS011;8594;52.052;8.354;2022-09-09T07:45:42;8.13;;;2.17;;
16954;SDS011;8594;52.052;8.354;2022-09-09T07:48:10;4.27;;;1.80;;
16954;SDS011;8594;52.052;8.354;2022-09-09T07:50:37;6.10;;;2.10;;
16954;SDS011;8594;52.052;8.354;2022-09-09T07:53:04;7.47;;;2.03;;
16954;SDS011;8594;52.052;8.354;2022-09-09T07:55:31;3.97;;;1.90;;
16954;SDS011;8594;52.052;8.354;2022-09-09T07:57:58;6.53;;;2.57;;
16954;SDS011;8594;52.052;8.354;2022-09-09T08:00:24;8.73;;;1.97;;
16954;SDS011;8594;52.052;8.354;2022-09-09T08:02:53;4.30;;;1.80;;
16954;SDS011;8594;52.052;8.354;2022-09-09T08:05:22;10.10;;;2.13;;
16954;SDS011;8594;52.052;8.354;2022-09-09T08:07:48;5.30;;;1.77;;
16954;SDS011;8594;52.052;8.354;2022-09-09T08:10:15;7.10;;;1.87;;
16954;SDS011;8594;52.052;8.354;2022-09-09T08:12:43;6.37;;;1.97;;
16954;SDS011;8594;52.052;8.354;2022-09-09T08:15:10;8.10;;;1.60;;
16954;SDS011;8594;52.052;8.354;2022-09-09T08:17:38;11.63;;;2.50;;
16954;SDS011;8594;52.052;8.354;2022-09-09T08:20:05;5.93;;;2.00;;
16954;SDS011;8594;52.052;8.354;2022-09-09T08:22:33;3.63;;;1.50;;
16954;SDS011;8594;52.052;8.354;2022-09-09T08:25:02;5.53;;;1.87;;
16954;SDS011;8594;52.052;8.354;2022-09-09T08:27:31;6.30;;;1.90;;
16954;SDS011;8594;52.052;8.354;2022-09-09T08:29:58;7.20;;;1.87;;
16954;SDS011;8594;52.052;8.354;2022-09-09T08:32:25;6.83;;;1.70;;
16954;SDS011;8594;52.052;8.354;2022-09-09T08:34:52;9.07;;;1.80;;
16954;SDS011;8594;52.052;8.354;2022-09-09T08:37:18;4.00;;;1.67;;
16954;SDS011;8594;52.052;8.354;2022-09-09T08:39:47;6.47;;;1.57;;
16954;SDS011;8594;52.052;8.354;2022-09-09T08:42:17;10.43;;;1.97;;
16954;SDS011;8594;52.052;8.354;2022-09-09T08:45:20;4.03;;;1.50;;
16954;SDS011;8594;52.052;8.354;2022-09-09T08:48:01;7.87;;;1.80;;
16954;SDS011;8594;52.052;8.354;2022-09-09T08:50:42;6.20;;;1.80;;
16954;SDS011;8594;52.052;8.354;2022-09-09T08:53:14;6.40;;;1.57;;
16954;SDS011;8594;52.052;8.354;2022-09-09T08:55:48;5.67;;;1.53;;
16954;SDS011;8594;52.052;8.354;2022-09-09T08:58:20;11.37;;;2.27;;
16954;SDS011;8594;52.052;8.354;2022-09-09T09:01:00;7.00;;;1.40;;
16954;SDS011;8594;52.052;8.354;2022-09-09T09:03:48;6.37;;;1.30;;
16954;SDS011;8594;52.052;8.354;2022-09-09T09:06:27;5.73;;;1.60;;
16954;SDS011;8594;52.052;8.354;2022-09-09T09:09:11;6.23;;;1.83;;
16954;SDS011;8594;52.052;8.354;2022-09-09T09:11:49;6.30;;;1.70;;
16954;SDS011;8594;52.052;8.354;2022-09-09T09:14:20;7.87;;;1.53;;
16954;SDS011;8594;52.052;8.354;2022-09-09T09:16:51;8.87;;;1.87;;
16954;SDS011;8594;52.052;8.354;2022-09-09T09:19:22;6.07;;;1.60;;
16954;SDS011;8594;52.052;8.354;2022-09-09T09:21:52;8.70;;;1.80;;
16954;SDS011;8594;52.052;8.354;2022-09-09T09:24:27;7.67;;;1.70;;
16954;SDS011;8594;52.052;8.354;2022-09-09T09:27:13;6.87;;;2.00;;
16954;SDS011;8594;52.052;8.354;2022-09-09T09:29:45;5.23;;;1.93;;
16954;SDS011;8594;52.052;8.354;2022-09-09T09:32:16;6.20;;;1.67;;
16954;SDS011;8594;52.052;8.354;2022-09-09T09:34:48;10.80;;;1.50;;
16954;SDS011;8594;52.052;8.354;2022-09-09T09:37:17;10.63;;;1.43;;
16954;SDS011;8594;52.052;8.354;2022-09-09T09:39:54;4.03;;;1.10;;
16954;SDS011;8594;52.052;8.354;2022-09-09T09:42:22;3.50;;;1.07;;
16954;SDS011;8594;52.052;8.354;2022-09-09T09:44:49;6.47;;;1.30;;
16954;SDS011;8594;52.052;8.354;2022-09-09T09:47:17;4.30;;;1.23;;
16954;SDS011;8594;52.052;8.354;2022-09-09T09:49:53;5.03;;;1.30;;
16954;SDS011;8594;52.052;8.354;2022-09-09T09:52:22;4.47;;;1.30;;
16954;SDS011;8594;52.052;8.354;2022-09-09T09:54:51;9.00;;;1.40;;
16954;SDS011;8594;52.052;8.354;2022-09-09T09:57:23;5.87;;;1.60;;
16954;SDS011;8594;52.052;8.354;2022-09-09T10:00:02;4.53;;;1.30;;
16954;SDS011;8594;52.052;8.354;2022-09-09T10:02:49;3.33;;;1.40;;
16954;SDS011;8594;52.052;8.354;2022-09-09T10:05:22;4.27;;;1.33;;
16954;SDS011;8594;52.052;8.354;2022-09-09T10:08:00;5.40;;;1.37;;
16954;SDS011;8594;52.052;8.354;2022-09-09T10:10:34;5.60;;;1.50;;
16954;SDS011;8594;52.052;8.354;2022-09-09T10:13:24;6.60;;;1.70;;
16954;SDS011;8594;52.052;8.354;2022-09-09T10:16:01;8.13;;;1.40;;
16954;SDS011;8594;52.052;8.354;2022-09-09T10:18:56;5.50;;;1.40;;
16954;SDS011;8594;52.052;8.354;2022-09-09T10:24:33;5.30;;;1.50;;
16954;SDS011;8594;52.052;8.354;2022-09-09T10:27:23;5.80;;;1.33;;
16954;SDS011;8594;52.052;8.354;2022-09-09T10:30:04;8.40;;;1.50;;
16954;SDS011;8594;52.052;8.354;2022-09-09T10:32:41;4.03;;;1.40;;
16954;SDS011;8594;52.052;8.354;2022-09-09T10:35:24;6.17;;;1.47;;
16954;SDS011;8594;52.052;8.354;2022-09-09T10:38:05;4.87;;;1.33;;
16954;SDS011;8594;52.052;8.354;2022-09-09T10:40:44;9.40;;;1.50;;
16954;SDS011;8594;52.052;8.354;2022-09-09T10:43:39;5.93;;;1.33;;
16954;SDS011;8594;52.052;8.354;2022-09-09T10:46:45;7.63;;;1.50;;
16954;SDS011;8594;52.052;8.354;2022-09-09T10:49:50;5.53;;;1.50;;
16954;SDS011;8594;52.052;8.354;2022-09-09T10:52:45;5.83;;;1.63;;
16954;SDS011;8594;52.052;8.354;2022-09-09T10:55:24;7.67;;;1.50;;
16954;SDS011;8594;52.052;8.354;2022-09-09T10:58:02;4.03;;;1.20;;
16954;SDS011;8594;52.052;8.354;2022-09-09T11:00:35;7.40;;;1.63;;
16954;SDS011;8594;52.052;8.354;2022-09-09T11:03:14;7.63;;;1.30;;
16954;SDS011;8594;52.052;8.354;2022-09-09T11:05:48;9.13;;;1.60;;
16954;SDS011;8594;52.052;8.354;2022-09-09T11:08:21;6.97;;;1.40;;
16954;SDS011;8594;52.052;8.354;2022-09-09T11:10:55;4.27;;;1.30;;
16954;SDS011;8594;52.052;8.354;2022-09-09T11:13:30;5.17;;;1.23;;
16954;SDS011;8594;52.052;8.354;2022-09-09T11:16:12;8.07;;;1.20;;
16954;SDS011;8594;52.052;8.354;2022-09-09T11:18:51;4.40;;;1.30;;
16954;SDS011;8594;52.052;8.354;2022-09-09T11:21:27;6.03;;;1.60;;
16954;SDS011;8594;52.052;8.354;2022-09-09T11:24:00;4.97;;;1.40;;
16954;SDS011;8594;52.052;8.354;2022-09-09T11:26:36;5.87;;;1.40;;
16954;SDS011;8594;52.052;8.354;2022-09-09T11:29:26;4.83;;;1.40;;
16954;SDS011;8594;52.052;8.354;2022-09-09T11:32:39;4.27;;;1.30;;
16954;SDS011;8594;52.052;8.354;2022-09-09T11:35:50;6.27;;;1.40;;
16954;SDS011;8594;52.052;8.354;2022-09-09T11:38:37;3.30;;;1.10;;
16954;SDS011;8594;52.052;8.354;2022-09-09T11:41:11;3.07;;;1.47;;
16954;SDS011;8594;52.052;8.354;2022-09-09T11:43:41;3.83;;;1.23;;
16954;SDS011;8594;52.052;8.354;2022-09-09T11:46:11;4.03;;;1.50;;
16954;SDS011;8594;52.052;8.354;2022-09-09T11:48:42;7.43;;;1.40;;
16954;SDS011;8594;52.052;8.354;2022-09-09T11:51:24;4.37;;;1.20;;
16954;SDS011;8594;52.052;8.354;2022-09-09T11:53:55;4.27;;;1.40;;
16954;SDS011;8594;52.052;8.354;2022-09-09T11:56:27;9.90;;;1.50;;
16954;SDS011;8594;52.052;8.354;2022-09-09T11:58:58;7.70;;;1.73;;
16954;SDS011;8594;52.052;8.354;2022-09-09T12:01:29;9.20;;;1.57;;
16954;SDS011;8594;52.052;8.354;2022-09-09T12:04:06;3.30;;;1.13;;
16954;SDS011;8594;52.052;8.354;2022-09-09T12:06:46;6.27;;;1.20;;
16954;SDS011;8594;52.052;8.354;2022-09-09T12:09:19;6.53;;;1.43;;
16954;SDS011;8594;52.052;8.354;2022-09-09T12:12:04;7.10;;;1.33;;
16954;SDS011;8594;52.052;8.354;2022-09-09T12:14:59;6.40;;;1.40;;
16954;SDS011;8594;52.052;8.354;2022-09-09T12:17:46;11.83;;;1.60;;
16954;SDS011;8594;52.052;8.354;2022-09-09T12:20:17;5.23;;;1.23;;
16954;SDS011;8594;52.052;8.354;2022-09-09T12:22:52;7.60;;;1.27;;
16954;SDS011;8594;52.052;8.354;2022-09-09T12:25:51;4.57;;;1.20;;
16954;SDS011;8594;52.052;8.354;2022-09-09T12:28:57;5.27;;;1.17;;
16954;SDS011;8594;52.052;8.354;2022-09-09T12:31:39;5.00;;;1.17;;
16954;SDS011;8594;52.052;8.354;2022-09-09T12:34:14;5.83;;;1.30;;
16954;SDS011;8594;52.052;8.354;2022-09-09T12:36:46;5.20;;;1.10;;
16954;SDS011;8594;52.052;8.354;2022-09-09T12:39:26;3.67;;;1.30;;
16954;SDS011;8594;52.052;8.354;2022-09-09T12:41:59;5.00;;;1.43;;
16954;SDS011;8594;52.052;8.354;2022-09-09T12:44:26;3.83;;;1.20;;
16954;SDS011;8594;52.052;8.354;2022-09-09T12:46:54;5.20;;;1.40;;
16954;SDS011;8594;52.052;8.354;2022-09-09T12:49:26;3.17;;;1.10;;
16954;SDS011;8594;52.052;8.354;2022-09-09T12:51:59;6.87;;;1.37;;
16954;SDS011;8594;52.052;8.354;2022-09-09T12:54:32;6.67;;;1.67;;
16954;SDS011;8594;52.052;8.354;2022-09-09T12:57:01;6.27;;;1.90;;
16954;SDS011;8594;52.052;8.354;2022-09-09T12:59:34;4.70;;;1.30;;
16954;SDS011;8594;52.052;8.354;2022-09-09T13:02:11;4.43;;;1.50;;
16954;SDS011;8594;52.052;8.354;2022-09-09T13:04:45;4.50;;;1.30;;
16954;SDS011;8594;52.052;8.354;2022-09-09T13:07:13;5.63;;;1.60;;
16954;SDS011;8594;52.052;8.354;2022-09-09T13:09:42;4.93;;;2.00;;
16954;SDS011;8594;52.052;8.354;2022-09-09T13:12:12;6.83;;;1.97;;
16954;SDS011;8594;52.052;8.354;2022-09-09T13:14:43;3.07;;;1.50;;
16954;SDS011;8594;52.052;8.354;2022-09-09T13:17:18;3.87;;;1.23;;
16954;SDS011;8594;52.052;8.354;2022-09-09T13:19:48;6.73;;;1.40;;
16954;SDS011;8594;52.052;8.354;2022-09-09T13:22:19;3.50;;;1.10;;
16954;SDS011;8594;52.052;8.354;2022-09-09T13:24:59;7.43;;;1.20;;
16954;SDS011;8594;52.052;8.354;2022-09-09T13:27:29;3.93;;;1.10;;
16954;SDS011;8594;52.052;8.354;2022-09-09T13:29:59;5.50;;;1.03;;
16954;SDS011;8594;52.052;8.354;2022-09-09T13:32:27;5.30;;;1.07;;
16954;SDS011;8594;52.052;8.354;2022-09-09T13:34:57;5.23;;;1.10;;
16954;SDS011;8594;52.052;8.354;2022-09-09T13:37:26;2.70;;;0.90;;
16954;SDS011;8594;52.052;8.354;2022-09-09T13:40:01;5.40;;;1.47;;
16954;SDS011;8594;52.052;8.354;2022-09-09T13:42:32;3.23;;;0.70;;
16954;SDS011;8594;52.052;8.354;2022-09-09T13:45:14;5.57;;;0.90;;
16954;SDS011;8594;52.052;8.354;2022-09-09T13:47:46;2.30;;;0.90;;
16954;SDS011;8594;52.052;8.354;2022-09-09T13:50:20;4.70;;;0.70;;
16954;SDS011;8594;52.052;8.354;2022-09-09T13:52:49;4.20;;;0.70;;
16954;SDS011;8594;52.052;8.354;2022-09-09T13:55:20;3.17;;;0.70;;
16954;SDS011;8594;52.052;8.354;2022-09-09T13:57:50;2.67;;;0.67;;
16954;SDS011;8594;52.052;8.354;2022-09-09T14:00:18;2.77;;;0.80;;
16954;SDS011;8594;52.052;8.354;2022-09-09T14:02:45;2.03;;;0.70;;
16954;SDS011;8594;52.052;8.354;2022-09-09T14:05:13;3.40;;;1.10;;
16954;SDS011;8594;52.052;8.354;2022-09-09T14:07:41;2.73;;;0.83;;
16954;SDS011;8594;52.052;8.354;2022-09-09T14:10:09;2.73;;;1.10;;
16954;SDS011;8594;52.052;8.354;2022-09-09T14:12:39;6.47;;;1.00;;
16954;SDS011;8594;52.052;8.354;2022-09-09T14:15:06;5.47;;;1.23;;
16954;SDS011;8594;52.052;8.354;2022-09-09T14:17:37;3.73;;;1.00;;
16954;SDS011;8594;52.052;8.354;2022-09-09T14:20:04;4.60;;;1.00;;
16954;SDS011;8594;52.052;8.354;2022-09-09T14:22:34;2.57;;;0.90;;
16954;SDS011;8594;52.052;8.354;2022-09-09T14:25:02;3.97;;;1.00;;
16954;SDS011;8594;52.052;8.354;2022-09-09T14:27:30;6.50;;;1.50;;
16954;SDS011;8594;52.052;8.354;2022-09-09T14:29:59;5.47;;;1.30;;
16954;SDS011;8594;52.052;8.354;2022-09-09T14:32:26;4.43;;;0.87;;
16954;SDS011;8594;52.052;8.354;2022-09-09T14:34:53;5.87;;;1.33;;
16954;SDS011;8594;52.052;8.354;2022-09-09T14:37:20;3.33;;;1.00;;
16954;SDS011;8594;52.052;8.354;2022-09-09T14:39:47;4.37;;;1.10;;
16954;SDS011;8594;52.052;8.354;2022-09-09T14:42:15;7.43;;;1.20;;
16954;SDS011;8594;52.052;8.354;2022-09-09T14:44:42;3.03;;;1.00;;
16954;SDS011;8594;52.052;8.354;2022-09-09T14:47:10;4.07;;;1.10;;
16954;SDS011;8594;52.052;8.354;2022-09-09T14:49:37;3.97;;;1.10;;
16954;SDS011;8594;52.052;8.354;2022-09-09T14:52:04;3.37;;;1.03;;
16954;SDS011;8594;52.052;8.354;2022-09-09T14:54:31;3.43;;;1.10;;
16954;SDS011;8594;52.052;8.354;2022-09-09T14:56:58;4.40;;;1.27;;
16954;SDS011;8594;52.052;8.354;2022-09-09T14:59:25;4.87;;;1.00;;
16954;SDS011;8594;52.052;8.354;2022-09-09T15:01:52;3.23;;;1.10;;
16954;SDS011;8594;52.052;8.354;2022-09-09T15:04:21;4.30;;;1.20;;
16954;SDS011;8594;52.052;8.354;2022-09-09T15:06:47;3.70;;;1.00;;
16954;SDS011;8594;52.052;8.354;2022-09-09T15:09:17;4.87;;;0.90;;
16954;SDS011;8594;52.052;8.354;2022-09-09T15:11:44;2.40;;;1.00;;
16954;SDS011;8594;52.052;8.354;2022-09-09T15:14:10;3.03;;;1.07;;
16954;SDS011;8594;52.052;8.354;2022-09-09T15:16:38;3.87;;;0.90;;
16954;SDS011;8594;52.052;8.354;2022-09-09T15:19:06;3.73;;;0.90;;
16954;SDS011;8594;52.052;8.354;2022-09-09T15:21:35;2.40;;;0.80;;
16954;SDS011;8594;52.052;8.354;2022-09-09T15:24:04;6.60;;;0.90;;
16954;SDS011;8594;52.052;8.354;2022-09-09T15:26:33;7.70;;;0.90;;
16954;SDS011;8594;52.052;8.354;2022-09-09T15:29:03;7.83;;;1.00;;
16954;SDS011;8594;52.052;8.354;2022-09-09T15:31:30;3.13;;;0.90;;
16954;SDS011;8594;52.052;8.354;2022-09-09T15:33:58;4.90;;;1.10;;
16954;SDS011;8594;52.052;8.354;2022-09-09T15:36:28;5.20;;;0.97;;